Time;durP1;ratioP1;P1;durP2;ratioP2;P2;SDS_P1;SDS_P2;PMS_P1;PMS_P2;Temp;Humidity;BMP_temperature;BMP_pressure;BME280_temperature;BME280_humidity;BME280_pressure;Samples;Min_cycle;Max_cycle;Signal;HPM_P1;HPM_P2
2023/07/07 00:00:10;;;;;;;3.30;2.33;;;;;;;21.02;56.38;101860.66;5006734;28;20081;-51
2023/07/07 00:02:36;;;;;;;2.25;2.05;;;;;;;21.03;56.33;101866.94;5007008;28;20029;-50
2023/07/07 00:05:01;;;;;;;2.53;2.20;;;;;;;21.03;56.11;101861.53;5003205;28;20473;-51
2023/07/07 00:07:27;;;;;;;3.20;1.98;;;;;;;21.02;56.02;101859.81;5001144;28;20034;-48
2023/07/07 00:09:52;;;;;;;3.47;2.30;;;;;;;21.02;56.38;101871.50;5006639;28;20042;-50
2023/07/07 00:12:18;;;;;;;4.63;2.33;;;;;;;21.02;56.28;101865.25;5007735;28;20034;-51
2023/07/07 00:14:43;;;;;;;2.92;2.13;;;;;;;21.02;55.86;101860.66;5011924;28;20034;-48
2023/07/07 00:17:11;;;;;;;3.20;2.35;;;;;;;21.01;55.93;101869.78;5008448;28;20022;-51
2023/07/07 00:19:37;;;;;;;4.32;2.38;;;;;;;21.00;56.17;101865.38;5009291;28;20072;-50
2023/07/07 00:22:05;;;;;;;2.60;2.13;;;;;;;21.01;56.38;101868.94;5006307;28;20053;-51
2023/07/07 00:24:31;;;;;;;3.17;2.35;;;;;;;20.99;56.20;101863.66;5005684;28;20034;-51
2023/07/07 00:26:57;;;;;;;4.05;2.40;;;;;;;20.98;56.10;101859.25;5010551;28;20058;-51
2023/07/07 00:29:22;;;;;;;4.35;2.50;;;;;;;21.00;56.27;101864.50;5007026;28;20489;-50
2023/07/07 00:31:47;;;;;;;3.95;2.67;;;;;;;20.99;55.85;101865.50;5006565;28;20038;-51
2023/07/07 00:34:13;;;;;;;2.42;2.22;;;;;;;20.98;55.85;101869.19;5006081;28;20057;-51
2023/07/07 00:36:38;;;;;;;4.18;2.08;;;;;;;20.98;56.16;101863.78;5005648;28;20066;-50
2023/07/07 00:39:04;;;;;;;5.38;2.17;;;;;;;20.97;55.74;101871.06;5005270;28;20042;-50
2023/07/07 00:41:29;;;;;;;2.17;1.98;;;;;;;20.96;56.02;101866.66;5005916;28;20393;-48
2023/07/07 00:44:06;;;;;;;3.47;2.45;;;;;;;20.97;55.77;101872.94;5009869;28;20034;-51
2023/07/07 00:46:31;;;;;;;2.92;2.22;;;;;;;20.97;55.92;101871.06;5008256;28;20120;-49
2023/07/07 00:49:00;;;;;;;3.70;2.40;;;;;;;20.96;55.65;101866.66;5006509;28;20123;-50
2023/07/07 00:51:33;;;;;;;3.42;2.20;;;;;;;20.94;55.81;101860.50;5006777;28;20061;-51
2023/07/07 00:54:03;;;;;;;3.17;2.33;;;;;;;20.94;55.92;101859.66;5005453;28;20121;-51
2023/07/07 00:56:39;;;;;;;2.15;1.95;;;;;;;20.93;55.99;101872.34;5006627;28;20585;-49
2023/07/07 00:59:10;;;;;;;3.70;2.67;;;;;;;20.94;55.68;101862.38;5006295;28;20040;-50
2023/07/07 01:01:36;;;;;;;;;;;;;;;21.03;55.84;101862.38;5005087;28;20029;-51
2023/07/07 01:04:05;;;;;;;4.00;2.13;;;;;;;20.94;55.37;101868.63;5005075;28;20379;-48
2023/07/07 01:06:35;;;;;;;4.20;2.40;;;;;;;20.94;55.67;101874.03;5001442;28;20112;-49
2023/07/07 01:09:08;;;;;;;3.63;1.90;;;;;;;20.93;55.67;101883.19;5007410;28;20030;-51
2023/07/07 01:11:34;;;;;;;2.55;1.90;;;;;;;20.93;55.92;101883.19;5004186;28;20116;-51
2023/07/07 01:14:04;;;;;;;3.00;1.95;;;;;;;20.91;55.73;101870.78;5009482;28;20132;-51
2023/07/07 01:16:36;;;;;;;3.55;2.45;;;;;;;20.91;55.76;101868.06;5011284;28;20037;-51
2023/07/07 01:19:52;;;;;;;3.53;2.00;;;;;;;20.93;55.44;101875.06;5013530;28;20030;-50
2023/07/07 01:22:32;;;;;;;4.47;2.20;;;;;;;20.91;55.76;101879.75;5011665;28;20053;-50
2023/07/07 01:25:22;;;;;;;3.08;2.15;;;;;;;20.91;55.38;101877.03;5008698;28;20116;-50
2023/07/07 01:28:08;;;;;;;2.28;2.08;;;;;;;20.92;55.66;101872.47;5009864;28;20487;-50
2023/07/07 01:30:47;;;;;;;2.38;2.17;;;;;;;20.89;55.30;101877.19;5009655;28;20031;-50
2023/07/07 01:33:16;;;;;;;2.60;2.20;;;;;;;20.88;55.20;101875.47;5008851;28;20070;-49
2023/07/07 01:35:42;;;;;;;3.00;1.90;;;;;;;20.87;55.10;101878.34;5007484;28;20523;-50
2023/07/07 01:38:38;;;;;;;2.80;2.53;;;;;;;20.88;55.34;101875.47;5008137;28;20026;-50
2023/07/07 01:41:20;;;;;;;4.47;2.20;;;;;;;20.87;55.61;101867.50;5011705;28;20033;-50
2023/07/07 01:43:56;;;;;;;2.92;2.25;;;;;;;20.87;55.17;101878.34;5007953;28;20112;-50
2023/07/07 01:46:27;;;;;;;2.40;2.20;;;;;;;20.86;55.18;101865.78;5009349;28;20427;-50
2023/07/07 01:49:03;;;;;;;2.85;2.22;;;;;;;20.86;55.21;101865.78;5007923;28;20034;-51
2023/07/07 01:51:40;;;;;;;2.80;2.20;;;;;;;20.84;55.31;101871.31;5007493;28;20117;-50
2023/07/07 01:54:09;;;;;;;2.38;2.05;;;;;;;20.83;55.36;101866.06;5009280;28;20042;-51
2023/07/07 01:56:35;;;;;;;3.38;2.28;;;;;;;20.83;54.99;101871.50;5010266;28;20162;-49
2023/07/07 01:59:00;;;;;;;3.60;2.47;;;;;;;20.82;55.17;101865.19;5008712;28;20054;-51
2023/07/07 02:01:28;;;;;;;3.63;1.90;;;;;;;20.82;55.01;101870.59;5006501;28;20046;-49
2023/07/07 02:03:54;;;;;;;3.45;2.50;;;;;;;20.82;54.81;101869.75;5007569;28;20042;-50
2023/07/07 02:06:19;;;;;;;3.00;2.15;;;;;;;20.82;55.27;101865.19;5009428;28;20045;-49
2023/07/07 02:08:44;;;;;;;3.20;2.30;;;;;;;20.81;55.03;101874.34;5010107;28;20065;-50
2023/07/07 02:11:10;;;;;;;2.40;2.20;;;;;;;20.80;54.90;101869.06;5007337;28;20073;-50
2023/07/07 02:13:36;;;;;;;3.28;2.25;;;;;;;20.80;54.95;101863.63;5014364;28;20033;-51
2023/07/07 02:16:02;;;;;;;4.38;2.65;;;;;;;20.80;55.42;101861.78;5016188;28;20472;-51
2023/07/07 02:18:27;;;;;;;4.13;2.00;;;;;;;20.79;55.32;101854.66;5008512;28;20027;-51
2023/07/07 02:20:53;;;;;;;3.97;2.47;;;;;;;20.80;55.13;101855.50;5010054;28;20038;-49
2023/07/07 02:23:18;;;;;;;2.65;2.13;;;;;;;20.79;55.16;101860.09;5007125;28;20025;-50
2023/07/07 02:25:43;;;;;;;3.50;2.42;;;;;;;20.80;55.07;101866.34;5007962;28;20034;-50
2023/07/07 02:28:09;;;;;;;2.80;2.40;;;;;;;20.79;54.85;101867.31;5007571;28;20049;-48
2023/07/07 02:30:35;;;;;;;5.85;2.63;;;;;;;20.79;54.89;101861.91;5009482;28;20034;-49
2023/07/07 02:33:00;;;;;;;2.53;2.10;;;;;;;20.78;54.91;101857.50;5008995;28;20030;-51
2023/07/07 02:35:26;;;;;;;3.53;2.05;;;;;;;20.78;54.74;101862.94;5008302;28;20041;-51
2023/07/07 02:37:51;;;;;;;3.65;2.45;;;;;;;20.78;54.95;101865.63;5002798;28;20062;-51
2023/07/07 02:40:16;;;;;;;3.08;2.65;;;;;;;20.77;54.99;101869.31;5007381;28;20037;-51
2023/07/07 02:42:42;;;;;;;2.63;2.22;;;;;;;20.77;54.55;101863.91;5007250;28;20494;-50
2023/07/07 02:45:08;;;;;;;2.58;2.22;;;;;;;20.76;54.96;101871.19;5006450;28;20093;-51
2023/07/07 02:47:33;;;;;;;2.78;2.40;;;;;;;20.75;54.54;101871.31;5007397;28;20038;-51
2023/07/07 02:49:58;;;;;;;3.15;2.30;;;;;;;20.76;54.81;101870.34;5007677;28;20117;-48
2023/07/07 02:52:24;;;;;;;4.00;2.60;;;;;;;20.75;54.63;101868.59;5008410;28;20497;-51
2023/07/07 02:54:49;;;;;;;2.63;2.42;;;;;;;20.75;54.67;101868.59;5004065;28;20030;-51
2023/07/07 02:57:14;;;;;;;3.38;2.38;;;;;;;20.75;54.81;101865.91;5005259;28;20392;-49
2023/07/07 02:59:40;;;;;;;3.50;2.28;;;;;;;20.74;54.93;101875.03;5007051;28;20121;-50
2023/07/07 03:02:06;;;;;;;3.50;2.30;;;;;;;20.73;55.08;101881.41;5007719;28;20026;-51
2023/07/07 03:04:31;;;;;;;3.92;2.67;;;;;;;20.72;55.00;101885.16;5009425;28;20038;-50
2023/07/07 03:06:57;;;;;;;3.40;2.42;;;;;;;20.72;54.83;101877.03;5008675;28;20488;-50
2023/07/07 03:09:22;;;;;;;2.97;2.25;;;;;;;20.71;54.53;101878.84;5007947;28;20116;-51
2023/07/07 03:11:47;;;;;;;4.18;2.53;;;;;;;20.71;54.62;101884.25;5007163;28;20033;-50
2023/07/07 03:14:16;;;;;;;2.35;2.05;;;;;;;20.70;54.69;101887.97;5006756;28;20160;-50
2023/07/07 03:16:46;;;;;;;2.63;2.20;;;;;;;20.69;54.88;101891.66;5007872;28;20056;-49
2023/07/07 03:19:12;;;;;;;2.53;2.33;;;;;;;20.68;54.92;101888.13;5013095;28;20485;-50
2023/07/07 03:21:37;;;;;;;2.47;2.05;;;;;;;20.69;54.54;101887.13;5007817;28;20030;-51
2023/07/07 03:24:02;;;;;;;2.53;2.10;;;;;;;20.69;54.53;101892.56;5007121;28;20543;-49
2023/07/07 03:26:28;;;;;;;4.10;2.30;;;;;;;20.68;54.46;101889.97;5007329;28;20092;-50
2023/07/07 03:28:54;;;;;;;3.10;2.53;;;;;;;20.66;54.98;101883.84;5006157;28;20037;-50
2023/07/07 03:31:22;;;;;;;3.58;2.50;;;;;;;20.67;54.59;101877.41;5006920;28;20038;-51
2023/07/07 03:33:49;;;;;;;2.10;1.90;;;;;;;20.66;54.48;101889.25;5008699;28;20077;-51
2023/07/07 03:36:15;;;;;;;5.68;2.67;;;;;;;20.66;54.36;101889.25;5006307;28;20030;-51
2023/07/07 03:38:41;;;;;;;4.63;2.60;;;;;;;20.66;54.17;101884.69;5007499;28;20022;-51
2023/07/07 03:41:10;;;;;;;3.47;2.50;;;;;;;20.66;54.35;101889.25;5007871;28;20034;-50
2023/07/07 03:43:37;;;;;;;3.90;2.60;;;;;;;20.66;54.54;101891.97;5007201;28;20496;-52
2023/07/07 03:46:03;;;;;;;2.80;2.60;;;;;;;20.64;54.50;101886.69;5007139;28;20504;-49
2023/07/07 03:48:29;;;;;;;2.97;2.38;;;;;;;20.63;54.73;101884.97;5005848;28;20034;-50
2023/07/07 03:50:59;;;;;;;4.82;2.90;;;;;;;20.63;54.56;101893.06;5005358;28;20042;-51
2023/07/07 03:53:26;;;;;;;4.10;2.97;;;;;;;20.62;54.53;101885.97;5000219;28;20497;-51
2023/07/07 03:55:52;;;;;;;2.83;2.28;;;;;;;20.62;54.46;101888.69;5006649;28;20044;-50
2023/07/07 03:58:17;;;;;;;2.50;2.30;;;;;;;20.62;54.32;101894.09;5006298;28;20061;-51
2023/07/07 04:00:42;;;;;;;3.38;2.58;;;;;;;20.62;54.18;101893.22;5005545;28;20048;-49
2023/07/07 04:03:08;;;;;;;3.50;2.70;;;;;;;20.62;54.21;101888.69;5005574;28;20108;-50
2023/07/07 04:05:42;;;;;;;3.63;2.42;;;;;;;20.60;54.71;101887.97;5005961;28;20077;-47
2023/07/07 04:08:08;;;;;;;2.88;2.20;;;;;;;20.60;54.70;101882.56;5006608;28;20049;-51
2023/07/07 04:10:33;;;;;;;2.90;2.25;;;;;;;20.60;54.20;101892.50;5014266;28;20379;-49
2023/07/07 04:12:59;;;;;;;5.00;2.70;;;;;;;20.59;54.21;101891.63;5005998;28;20480;-50
2023/07/07 04:15:24;;;;;;;5.22;2.40;;;;;;;20.60;54.16;101887.09;5011917;28;20030;-50
2023/07/07 04:17:49;;;;;;;3.65;2.28;;;;;;;20.59;54.59;101891.63;5008083;28;20033;-51
2023/07/07 04:20:15;;;;;;;2.75;2.53;;;;;;;20.58;54.49;101894.44;5006676;28;20054;-50
2023/07/07 04:22:40;;;;;;;2.55;2.28;;;;;;;20.59;54.61;101896.19;5005805;28;20076;-49
2023/07/07 04:25:10;;;;;;;4.15;2.90;;;;;;;20.57;54.48;101901.72;5007474;28;20380;-49
2023/07/07 04:27:36;;;;;;;3.60;2.22;;;;;;;20.57;54.40;101899.00;5006987;28;20029;-50
2023/07/07 04:30:03;;;;;;;3.05;2.25;;;;;;;20.57;54.13;101904.44;5002208;28;20033;-50
2023/07/07 04:32:29;;;;;;;4.05;2.80;;;;;;;20.57;54.41;101909.00;5006248;28;20079;-50
2023/07/07 04:34:54;;;;;;;4.38;2.83;;;;;;;20.57;54.30;101904.44;5005222;28;20180;-50
2023/07/07 04:37:20;;;;;;;3.03;2.72;;;;;;;20.57;54.37;101909.00;5007057;28;20041;-50
2023/07/07 04:39:45;;;;;;;2.83;2.35;;;;;;;20.56;54.36;101910.84;5007057;28;20038;-48
2023/07/07 04:42:11;;;;;;;3.83;2.55;;;;;;;20.57;54.57;101914.41;5007109;28;20033;-51
2023/07/07 04:44:36;;;;;;;4.70;2.60;;;;;;;20.57;54.17;101904.44;5006203;28;20033;-51
2023/07/07 04:47:02;;;;;;;3.63;2.60;;;;;;;20.57;54.04;101900.88;5006950;28;20033;-49
2023/07/07 04:49:28;;;;;;;3.83;2.50;;;;;;;20.56;54.47;101896.44;5001433;28;20033;-51
2023/07/07 04:51:53;;;;;;;3.75;2.40;;;;;;;20.56;54.01;101902.72;5008299;28;20030;-48
2023/07/07 04:54:18;;;;;;;3.35;2.80;;;;;;;20.56;54.47;101905.44;5009077;28;20042;-50
2023/07/07 04:56:44;;;;;;;4.57;2.30;;;;;;;20.56;54.15;101897.31;5009305;28;20041;-49
2023/07/07 04:59:10;;;;;;;4.18;2.50;;;;;;;20.57;54.34;101898.16;5010814;28;20113;-50
2023/07/07 05:01:37;;;;;;;2.90;2.40;;;;;;;20.56;54.48;101900.03;5010290;28;20510;-49
2023/07/07 05:04:03;;;;;;;3.60;2.35;;;;;;;20.57;53.93;101899.00;5009264;28;20037;-50
2023/07/07 05:06:32;;;;;;;4.47;2.20;;;;;;;20.57;53.86;101899.00;5010622;28;20077;-50
2023/07/07 05:08:58;;;;;;;2.55;2.20;;;;;;;20.59;53.83;101901.59;5009889;28;20030;-50
2023/07/07 05:11:25;;;;;;;4.72;2.95;;;;;;;20.58;54.09;101891.75;5010454;28;20081;-50
2023/07/07 05:13:52;;;;;;;3.13;2.10;;;;;;;20.58;53.91;101898.03;5011156;28;20112;-48
2023/07/07 05:16:20;;;;;;;2.55;2.28;;;;;;;20.59;53.78;101891.63;5012241;28;20340;-50
2023/07/07 05:18:46;;;;;;;3.33;2.40;;;;;;;20.60;53.65;101901.50;5017671;28;20030;-49
2023/07/07 05:21:13;;;;;;;3.67;2.50;;;;;;;20.61;53.63;101899.63;5009101;28;20503;-50
2023/07/07 05:23:38;;;;;;;2.88;2.20;;;;;;;20.60;53.62;101896.09;5008387;28;20103;-51
2023/07/07 05:26:05;;;;;;;5.22;2.42;;;;;;;20.62;53.96;101898.63;5015094;28;20046;-50
2023/07/07 05:28:31;;;;;;;2.50;2.30;;;;;;;20.62;53.67;101902.22;5007827;28;20031;-51
2023/07/07 05:30:57;;;;;;;3.03;2.30;;;;;;;20.62;54.43;101894.09;5012820;28;20073;-48
2023/07/07 05:33:22;;;;;;;2.03;1.80;;;;;;;20.64;54.02;101905.63;5008602;28;20085;-47
2023/07/07 05:35:50;;;;;;;3.47;2.10;;;;;;;20.64;54.05;101905.63;5009802;28;20038;-49
2023/07/07 05:38:17;;;;;;;3.63;2.15;;;;;;;20.64;54.38;101905.63;5008989;28;20133;-49
2023/07/07 05:40:45;;;;;;;2.58;2.15;;;;;;;20.64;54.57;101911.03;5010007;28;20026;-51
2023/07/07 05:43:14;;;;;;;3.97;2.70;;;;;;;20.66;54.65;101902.78;5007966;28;20084;-51
2023/07/07 05:45:39;;;;;;;4.72;2.13;;;;;;;20.66;53.99;101903.63;5006031;28;20041;-50
2023/07/07 05:48:05;;;;;;;5.30;2.50;;;;;;;20.66;54.51;101914.47;5009811;28;20045;-48
2023/07/07 05:50:30;;;;;;;3.70;2.17;;;;;;;20.66;54.42;101911.75;5011019;28;20045;-49
2023/07/07 05:52:56;;;;;;;3.38;2.20;;;;;;;20.67;54.59;101910.75;5014431;28;20499;-52
2023/07/07 05:55:25;;;;;;;2.70;2.28;;;;;;;20.68;54.67;101903.50;5008401;28;20041;-50
2023/07/07 05:57:51;;;;;;;3.88;2.42;;;;;;;20.69;54.66;101911.50;5005199;28;20034;-48
2023/07/07 06:00:17;;;;;;;3.58;2.25;;;;;;;20.69;54.34;101911.50;5009231;28;20473;-51
2023/07/07 06:02:42;;;;;;;3.67;2.22;;;;;;;20.70;54.54;101917.75;5010026;28;20033;-50
2023/07/07 06:05:08;;;;;;;4.65;1.90;;;;;;;20.70;54.46;101907.78;5006508;28;20044;-51
2023/07/07 06:07:33;;;;;;;2.60;1.90;;;;;;;20.70;54.75;101902.38;5005773;28;20044;-48
2023/07/07 06:09:58;;;;;;;3.25;2.40;;;;;;;20.72;54.63;101906.78;5008724;28;20044;-49
2023/07/07 06:12:24;;;;;;;3.88;2.03;;;;;;;20.72;54.58;101904.94;5010130;28;20113;-48
2023/07/07 06:14:49;;;;;;;4.47;2.45;;;;;;;20.72;54.62;101913.06;5009079;28;20048;-48
2023/07/07 06:17:15;;;;;;;3.63;2.28;;;;;;;20.73;54.94;101911.19;5007777;28;20460;-51
2023/07/07 06:19:40;;;;;;;3.65;2.50;;;;;;;20.75;55.10;101917.31;5002129;28;20026;-51
2023/07/07 06:22:05;;;;;;;5.47;2.92;;;;;;;20.74;54.69;101913.78;4997883;28;20022;-53
2023/07/07 06:24:31;;;;;;;4.00;2.25;;;;;;;20.74;54.55;101911.06;5002254;28;20068;-46
2023/07/07 06:26:56;;;;;;;7.22;2.45;;;;;;;20.75;54.36;101906.50;5011708;28;20038;-50
2023/07/07 06:29:21;;;;;;;4.93;2.38;;;;;;;20.75;54.97;101911.91;5007658;28;20025;-49
2023/07/07 06:31:48;;;;;;;5.28;2.22;;;;;;;20.74;54.85;101910.22;5004820;28;20073;-50
2023/07/07 06:34:13;;;;;;;4.95;2.38;;;;;;;20.75;54.93;101918.16;5008372;28;20465;-50
2023/07/07 06:36:39;;;;;;;7.97;2.50;;;;;;;20.76;54.79;101916.34;5002560;28;20041;-49
2023/07/07 06:39:05;;;;;;;5.38;2.53;;;;;;;20.74;54.53;101916.47;5005302;28;20070;-50
2023/07/07 06:41:30;;;;;;;10.02;2.53;;;;;;;20.76;54.60;101913.63;5012363;28;20061;-47
2023/07/07 06:43:56;;;;;;;5.28;2.55;;;;;;;20.76;54.56;101921.75;5001937;28;20030;-51
2023/07/07 06:46:24;;;;;;;4.03;2.38;;;;;;;20.77;54.38;101920.75;4984338;28;20057;-49
2023/07/07 06:48:50;;;;;;;6.10;2.30;;;;;;;20.77;54.71;101921.63;5006559;28;20029;-50
2023/07/07 06:51:15;;;;;;;4.75;2.60;;;;;;;20.78;54.65;101927.88;5004966;28;20022;-49
2023/07/07 06:53:40;;;;;;;3.58;2.58;;;;;;;20.79;53.98;101927.75;5009813;28;20402;-50
2023/07/07 06:56:06;;;;;;;2.92;2.30;;;;;;;20.80;54.17;101932.16;5007673;28;20040;-52
2023/07/07 06:58:33;;;;;;;4.47;2.58;;;;;;;20.81;54.57;101922.19;5002029;28;20038;-52
2023/07/07 07:00:58;;;;;;;6.97;2.75;;;;;;;20.81;54.39;101925.75;5000753;28;20077;-51
2023/07/07 07:03:24;;;;;;;6.57;2.50;;;;;;;20.83;54.80;101931.03;5003680;28;20385;-52
2023/07/07 07:05:50;;;;;;;7.13;2.28;;;;;;;20.83;54.77;101936.47;4999300;28;20038;-52
2023/07/07 07:08:15;;;;;;;6.75;2.13;;;;;;;20.85;54.56;101939.88;5006299;28;20061;-50
2023/07/07 07:10:41;;;;;;;3.20;2.15;;;;;;;20.85;55.05;101934.47;5003468;28;20038;-51
2023/07/07 07:13:08;;;;;;;5.05;2.22;;;;;;;20.86;54.81;101930.75;4999160;28;20065;-52
2023/07/07 07:15:33;;;;;;;4.63;2.35;;;;;;;20.87;55.58;101930.59;5007414;28;20622;-50
2023/07/07 07:17:59;;;;;;;4.63;2.05;;;;;;;20.89;55.40;101933.19;5005754;28;20026;-47
2023/07/07 07:20:24;;;;;;;5.07;1.92;;;;;;;20.91;54.99;101939.31;5000189;28;20072;-47
2023/07/07 07:22:50;;;;;;;4.13;2.35;;;;;;;20.92;55.37;101934.75;5012340;28;20155;-50
2023/07/07 07:25:16;;;;;;;7.20;2.40;;;;;;;20.92;55.36;101935.59;5014965;28;20396;-51
2023/07/07 07:27:41;;;;;;;7.95;2.25;;;;;;;20.93;55.76;101940.03;5008449;28;20034;-50
2023/07/07 07:30:08;;;;;;;6.45;2.05;;;;;;;20.93;55.61;101937.31;5007037;28;20041;-47
2023/07/07 07:32:34;;;;;;;6.03;2.15;;;;;;;20.93;55.74;101934.63;5001033;28;20046;-50
2023/07/07 07:34:59;;;;;;;9.00;2.13;;;;;;;20.94;55.82;101935.47;4999555;28;20048;-46
2023/07/07 07:37:25;;;;;;;7.00;2.15;;;;;;;20.94;55.86;101940.88;5005007;28;20029;-47
2023/07/07 07:39:51;;;;;;;2.95;1.77;;;;;;;20.95;56.24;101940.75;4997347;28;20037;-49
2023/07/07 07:42:16;;;;;;;5.05;2.08;;;;;;;20.94;56.42;101940.88;5002234;28;20042;-48
2023/07/07 07:44:42;;;;;;;4.13;2.20;;;;;;;20.94;55.95;101949.84;5018290;28;20038;-50
2023/07/07 07:47:08;;;;;;;2.70;1.90;;;;;;;20.95;56.19;101951.56;4999709;28;20038;-50
2023/07/07 07:49:34;;;;;;;2.92;1.92;;;;;;;20.95;56.43;101951.56;5000929;28;20380;-50
2023/07/07 07:51:59;;;;;;;4.28;2.30;;;;;;;20.97;56.40;101944.16;5000291;28;20127;-46
2023/07/07 07:54:26;;;;;;;3.20;2.00;;;;;;;20.96;56.56;101947.88;4998995;28;20652;-50
2023/07/07 07:56:52;;;;;;;4.75;2.38;;;;;;;20.97;56.37;101940.63;5005513;28;20073;-47
2023/07/07 07:59:17;;;;;;;5.85;2.10;;;;;;;20.98;56.24;101942.31;4999842;28;20031;-47
2023/07/07 08:01:42;;;;;;;4.95;1.85;;;;;;;20.99;56.13;101946.75;5003195;28;20026;-47
2023/07/07 08:04:08;;;;;;;3.05;1.92;;;;;;;20.99;56.60;101955.72;4999970;28;20046;-47
2023/07/07 08:06:34;;;;;;;6.70;2.25;;;;;;;20.98;56.79;101956.72;5001594;28;20108;-49
2023/07/07 08:09:00;;;;;;;6.72;1.90;;;;;;;20.99;56.35;101950.28;4998072;28;20026;-49
2023/07/07 08:11:40;;;;;;;3.60;2.00;;;;;;;21.01;56.34;101955.56;5002265;28;20026;-50
2023/07/07 08:14:30;;;;;;;5.85;2.08;;;;;;;21.01;56.25;101956.44;5015217;28;20037;-47
2023/07/07 08:16:58;;;;;;;5.00;1.98;;;;;;;21.01;56.65;101956.44;5007204;28;20476;-46
2023/07/07 08:19:24;;;;;;;3.55;1.75;;;;;;;21.00;56.67;101957.44;5009996;28;20028;-49
2023/07/07 08:21:50;;;;;;;2.28;1.77;;;;;;;21.01;56.79;101951.00;5005981;28;20044;-51
2023/07/07 08:24:16;;;;;;;3.17;1.80;;;;;;;21.02;56.93;101950.03;5000122;28;20030;-48
2023/07/07 08:26:42;;;;;;;2.92;1.90;;;;;;;21.03;56.75;101956.28;4998700;28;20113;-50
2023/07/07 08:29:07;;;;;;;4.20;2.13;;;;;;;21.03;56.95;101954.44;5003313;28;20060;-50
2023/07/07 08:31:33;;;;;;;2.10;1.70;;;;;;;21.03;56.79;101956.28;5002398;28;20118;-50
2023/07/07 08:33:58;;;;;;;3.40;1.80;;;;;;;21.03;56.87;101953.59;5004770;28;20046;-46
2023/07/07 08:36:24;;;;;;;4.70;1.73;;;;;;;21.04;56.88;101952.59;5002433;28;20548;-46
2023/07/07 08:38:49;;;;;;;3.35;1.88;;;;;;;21.04;56.56;101953.44;4999432;28;20038;-48
2023/07/07 08:41:15;;;;;;;5.03;1.90;;;;;;;21.05;56.93;101959.72;4996521;28;20026;-50
2023/07/07 08:43:41;;;;;;;3.13;1.58;;;;;;;21.04;56.99;101956.16;5003023;28;20116;-51
2023/07/07 08:46:22;;;;;;;3.38;2.20;;;;;;;21.06;56.60;101959.59;5006599;28;20476;-49
2023/07/07 08:48:54;;;;;;;3.33;1.60;;;;;;;21.06;56.80;101956.03;5007432;28;20029;-47
2023/07/07 08:51:25;;;;;;;4.50;2.03;;;;;;;21.06;56.65;101950.59;5006882;28;20038;-49
2023/07/07 08:54:11;;;;;;;4.80;1.60;;;;;;;21.07;56.78;101949.59;5000537;28;20050;-47
2023/07/07 08:56:58;;;;;;;2.95;1.92;;;;;;;21.05;57.07;101949.72;5011579;28;20495;-47
2023/07/07 08:59:33;;;;;;;3.20;2.00;;;;;;;21.06;56.58;101948.75;5004333;28;20031;-50
2023/07/07 09:02:16;;;;;;;2.00;1.80;;;;;;;21.06;56.93;101948.75;4997952;28;20610;-48
2023/07/07 09:05:03;;;;;;;3.22;1.63;;;;;;;21.08;56.58;101946.75;5005963;28;20029;-50
2023/07/07 09:07:49;;;;;;;3.38;1.80;;;;;;;21.07;56.72;101947.75;5000371;28;20083;-46
2023/07/07 09:10:29;;;;;;;2.20;1.60;;;;;;;21.09;56.60;101951.19;4997969;28;20053;-49
2023/07/07 09:13:20;;;;;;;2.43;1.73;;;;;;;21.07;56.96;101939.63;5009249;28;20034;-51
2023/07/07 09:16:11;;;;;;;3.17;1.80;;;;;;;21.10;56.74;101949.31;5003216;28;20037;-47
2023/07/07 09:18:47;;;;;;;3.78;2.00;;;;;;;21.08;56.77;101952.16;5014459;28;20422;-50
2023/07/07 09:21:42;;;;;;;2.20;1.48;;;;;;;21.08;56.66;101946.75;4999163;28;20101;-48
2023/07/07 09:24:24;;;;;;;2.33;1.60;;;;;;;21.08;56.79;101941.34;4998945;28;20059;-47
2023/07/07 09:26:53;;;;;;;2.10;1.70;;;;;;;21.09;56.79;101943.06;4999130;28;20322;-47
2023/07/07 09:29:24;;;;;;;4.38;2.30;;;;;;;21.09;56.79;101943.06;5002395;28;20080;-50
2023/07/07 09:31:50;;;;;;;3.70;2.00;;;;;;;21.09;57.09;101943.06;5005661;28;20034;-47
2023/07/07 09:34:16;;;;;;;2.55;1.88;;;;;;;21.11;56.64;101939.34;5003488;28;20044;-51
2023/07/07 09:36:50;;;;;;;2.90;1.60;;;;;;;21.10;57.09;101941.22;5005169;28;20095;-48
2023/07/07 09:39:34;;;;;;;2.85;1.92;;;;;;;21.12;56.61;101941.06;4997299;28;20030;-49
2023/07/07 09:42:57;;;;;;;2.78;1.88;;;;;;;21.14;56.51;101944.50;5012224;28;20117;-47
2023/07/07 09:45:41;;;;;;;2.30;1.98;;;;;;;21.12;56.55;101938.38;4991822;28;20488;-50
2023/07/07 09:48:30;;;;;;;3.58;1.60;;;;;;;21.12;56.95;101939.22;5007830;28;20034;-48
2023/07/07 09:51:07;;;;;;;2.85;1.70;;;;;;;21.14;57.00;101941.78;5002125;28;20061;-46
2023/07/07 09:53:36;;;;;;;3.60;1.92;;;;;;;21.14;57.08;101939.06;5014679;28;20081;-48
2023/07/07 09:56:03;;;;;;;4.50;1.92;;;;;;;21.14;56.54;101933.66;5005698;28;20030;-50
2023/07/07 09:58:39;;;;;;;3.35;1.83;;;;;;;21.12;57.00;101925.66;5005711;28;20065;-51
2023/07/07 10:01:05;;;;;;;2.88;1.80;;;;;;;21.14;56.69;101930.94;5005691;28;20058;-51
2023/07/07 10:03:51;;;;;;;2.25;1.80;;;;;;;21.14;56.70;101922.81;5005927;28;20060;-46
2023/07/07 10:06:20;;;;;;;2.08;1.50;;;;;;;21.14;56.62;101934.50;5005437;28;20087;-48
2023/07/07 10:08:45;;;;;;;3.38;1.60;;;;;;;21.15;57.07;101924.53;5008296;28;20536;-49
2023/07/07 10:11:20;;;;;;;1.98;1.45;;;;;;;21.16;56.93;101918.97;5009649;28;20113;-49
2023/07/07 10:13:48;;;;;;;1.77;1.67;;;;;;;21.16;56.96;101918.13;5015032;28;20099;-50
2023/07/07 10:16:30;;;;;;;3.03;1.40;;;;;;;21.16;56.53;101918.13;5012713;28;20108;-49
2023/07/07 10:19:14;;;;;;;2.47;1.60;;;;;;;21.16;56.86;101907.28;5012489;28;20357;-47
2023/07/07 10:21:40;;;;;;;3.55;1.73;;;;;;;21.16;56.53;101913.56;5003216;28;20366;-46
2023/07/07 10:24:05;;;;;;;2.85;1.70;;;;;;;21.17;56.62;101908.97;5000185;28;20033;-47
2023/07/07 10:26:32;;;;;;;1.80;1.70;;;;;;;21.16;56.63;101910.00;5013851;28;20033;-48
2023/07/07 10:29:01;;;;;;;3.55;1.90;;;;;;;21.17;56.70;101906.28;5005513;28;20522;-47
2023/07/07 10:31:27;;;;;;;1.98;1.70;;;;;;;21.17;57.00;101904.44;5021069;28;20018;-50
2023/07/07 10:33:59;;;;;;;2.28;1.85;;;;;;;21.18;56.99;101902.59;5000921;28;20481;-48
2023/07/07 10:36:28;;;;;;;3.75;1.88;;;;;;;21.19;56.97;101904.28;5003029;28;20031;-49
2023/07/07 10:38:55;;;;;;;3.05;1.83;;;;;;;21.20;56.70;101906.00;5005229;28;20033;-49
2023/07/07 10:41:25;;;;;;;3.53;1.60;;;;;;;21.19;56.62;101906.97;5007566;28;20026;-49
2023/07/07 10:43:51;;;;;;;2.80;1.80;;;;;;;21.20;56.54;101903.28;5007010;28;20492;-50
2023/07/07 10:46:17;;;;;;;2.25;1.77;;;;;;;21.21;56.68;101900.44;5007833;28;20030;-51
2023/07/07 10:48:46;;;;;;;2.38;1.70;;;;;;;21.21;56.73;101902.28;5010773;28;20040;-51
2023/07/07 10:51:14;;;;;;;2.22;1.77;;;;;;;21.21;56.77;101902.28;5002924;28;20033;-50
2023/07/07 10:53:50;;;;;;;2.17;1.67;;;;;;;21.22;56.70;101902.16;5007973;28;20054;-48
2023/07/07 10:56:28;;;;;;;2.78;1.88;;;;;;;21.25;57.05;101904.56;5006117;28;20491;-47
2023/07/07 10:59:08;;;;;;;2.75;1.83;;;;;;;21.24;56.69;101900.16;5005012;28;20475;-50
2023/07/07 11:01:52;;;;;;;3.20;1.85;;;;;;;21.25;57.05;101901.03;5011120;28;20099;-51
2023/07/07 11:04:34;;;;;;;2.50;1.70;;;;;;;21.25;56.66;101887.47;5006776;28;20095;-50
2023/07/07 11:07:03;;;;;;;1.95;1.80;;;;;;;21.25;57.03;101892.91;5004640;28;20033;-49
2023/07/07 11:10:07;;;;;;;2.03;1.77;;;;;;;21.28;56.57;101892.59;5008269;28;20384;-49
2023/07/07 11:12:54;;;;;;;1.77;1.67;;;;;;;21.28;56.59;101876.34;5011097;28;20480;-49
2023/07/07 11:15:34;;;;;;;2.88;1.60;;;;;;;21.29;56.70;101894.31;5007057;28;20462;-46
2023/07/07 11:18:25;;;;;;;3.25;1.77;;;;;;;21.32;56.91;101899.44;5012130;28;20037;-49
2023/07/07 11:20:50;;;;;;;2.65;2.05;;;;;;;21.31;56.82;101894.19;5009817;28;20026;-46
2023/07/07 11:23:48;;;;;;;2.15;1.77;;;;;;;21.33;56.60;101893.03;5007218;28;20040;-50
2023/07/07 11:26:26;;;;;;;2.05;1.85;;;;;;;21.33;56.49;101886.75;4998908;28;20488;-50
2023/07/07 11:28:57;;;;;;;2.33;2.00;;;;;;;21.31;56.76;101884.19;5009228;28;20034;-49
2023/07/07 11:31:46;;;;;;;3.15;1.70;;;;;;;21.33;56.76;101876.78;5008328;28;20034;-49
2023/07/07 11:34:29;;;;;;;2.92;1.95;;;;;;;21.34;56.35;101881.19;5005364;28;20053;-47